»·PEaware :: AAL401 KBFL-KBUR

AAL401 :: KBFL-KBUR

FLIGHT INFORMATION

Flight Status: Arrived
Operator:
American Airlines
More flights by this operator :: More flights under this callsign
Pilot: Anonymous 39875 (39875)
Aircraft: EMBRAER EMB-170/175
(E170)
More flights by this aircraft type
Origin: KBFL Meadows
United States
Destination: KBUR Bob Hope-Burbank
United States
More flights between these airports :: More routes between these airports
Route: MEADO5 LHS LYNXX8
File this flight plan on PilotEdge
Remarks: RMK / SIMBRIEF
Altitude:
(Current/Filed)
9,000ft
Speed:
(Current/Filed)
326kts
Departed: 05-Aug-22 11:16 AM
Arrived: 05-Aug-22 11:41 AM
Distance/Time
Traveled:
82nm/0:25
Distance/Time
To Go:
Arrived

Flight Plot

Page will automatically refresh every two minutes.

Flight plan parsing failed; only flown route is shown


Map Options




Map Legend


Flown Route
Filed Route
Departure Airport
Arrival Airport
Navaid (VOR, NDB)
Fix

Horizontal Profiles

Position Reports

Time Latitude Longitude Heading Altitude Ground
Speed
05-Aug-22 10:52 35.437477 -119.055169 104 517ft 0kts
05-Aug-22 10:53 35.437477 -119.055169 104 517ft 0kts
05-Aug-22 10:54 35.437477 -119.055168 104 517ft 0kts
05-Aug-22 10:55 35.437477 -119.055168 104 517ft 0kts
05-Aug-22 10:56 35.437477 -119.055168 104 517ft 0kts
05-Aug-22 10:57 35.437477 -119.055168 104 517ft 0kts
05-Aug-22 10:58 35.437477 -119.055168 104 517ft 0kts
05-Aug-22 10:59 35.437477 -119.055168 104 517ft 0kts
05-Aug-22 11:00 35.437477 -119.055168 104 517ft 0kts
05-Aug-22 11:01 35.437477 -119.055168 104 517ft 0kts
05-Aug-22 11:02 35.437477 -119.055168 104 517ft 0kts
05-Aug-22 11:03 35.437477 -119.055168 104 517ft 0kts
05-Aug-22 11:04 35.437477 -119.055168 104 517ft 0kts
05-Aug-22 11:05 35.437477 -119.055168 104 517ft 0kts
05-Aug-22 11:06 35.437477 -119.055168 104 517ft 0kts
05-Aug-22 11:07 35.437477 -119.055168 104 517ft 0kts
05-Aug-22 11:08 35.437464 -119.055952 77 517ft 2kts
05-Aug-22 11:09 35.437575 -119.056442 135 517ft 0kts
05-Aug-22 11:10 35.437575 -119.056442 135 517ft 0kts
05-Aug-22 11:11 35.437350 -119.056169 135 517ft 8kts
05-Aug-22 11:12 35.435016 -119.055335 151 517ft 14kts
05-Aug-22 11:13 35.430902 -119.050378 135 517ft 25kts
05-Aug-22 11:14 35.426558 -119.045171 135 517ft 18kts
05-Aug-22 11:15 35.427150 -119.048060 315 517ft 83kts
05-Aug-22 11:16 35.467595 -119.098974 313 3074ft 233kts
05-Aug-22 11:17 35.503050 -119.167005 265 6076ft 253kts
05-Aug-22 11:18 35.450101 -119.209271 166 8991ft 274kts
05-Aug-22 11:19 35.393678 -119.147029 139 10217ft 274kts
05-Aug-22 11:20 35.328314 -119.089432 148 11004ft 318kts
05-Aug-22 11:21 35.250805 -119.027458 148 11016ft 341kts
05-Aug-22 11:22 35.170641 -118.963360 148 11047ft 345kts
05-Aug-22 11:23 35.090536 -118.899473 148 11127ft 345kts
05-Aug-22 11:24 35.009900 -118.835331 148 11173ft 346kts
05-Aug-22 11:25 34.929063 -118.771168 148 11204ft 346kts
05-Aug-22 11:26 34.848466 -118.707333 148 11227ft 346kts
05-Aug-22 11:27 34.767817 -118.643627 148 11237ft 346kts
05-Aug-22 11:28 34.685255 -118.584893 164 11213ft 331kts
05-Aug-22 11:29 34.599340 -118.586561 185 9712ft 300kts
05-Aug-22 11:30 34.518626 -118.593221 178 9160ft 288kts
05-Aug-22 11:31 34.438228 -118.588093 181 8011ft 288kts
05-Aug-22 11:32 34.359149 -118.589661 181 6231ft 279kts
05-Aug-22 11:33 34.283049 -118.591448 181 5083ft 265kts
05-Aug-22 11:34 34.222811 -118.590455 162 3679ft 200kts
05-Aug-22 11:35 34.198899 -118.537354 97 3029ft 171kts
05-Aug-22 11:36 34.199503 -118.483863 89 2760ft 153kts
05-Aug-22 11:37 34.198616 -118.436034 88 1776ft 133kts
05-Aug-22 11:38 34.198156 -118.391662 91 1142ft 130kts
05-Aug-22 11:39 34.197794 -118.359798 90 731ft 47kts
05-Aug-22 11:40 34.197278 -118.351107 257 731ft 5kts
05-Aug-22 11:41 34.196785 -118.351497 180 731ft 0kts
05-Aug-22 11:42 34.196785 -118.351497 180 731ft 0kts
05-Aug-22 11:43 34.196785 -118.351497 180 731ft 0kts

Navigation Log

Ident Type
Flight plan parsing failed, navigation log unavailable